Neshoba, Mississippi
Current Conditions -  °F | °C
As of 7:58 AM on Sunday 21 Dec 2014 (Local Time) from KMEI Reporting Station
Overcast Overcast  
Wind Chill: 37°   Ceiling: 600
Heat Index: 41°   Visibility: 10mi
Dew Point: 38°   Wind: 6mph
Humidity: 89%   Direction: 350°N
Pressure: 30.16"   Gusts: NA
Location:  32.5022°N, 89.0013°W
Report Text: KMEI 211358Z 35005KT 10SM OVC006 05/03 A3016 RMK AO2 SLP212 T00500033
Loading
Personal Weather Stations






























Interactive Weather Map New forecast layout! Learn more

10-Day Weather Forecast

Advertisements
Track Severe Weather on mobile